createdAt,value
2023-07-19T00:00:06.907Z,9.50
2023-07-19T00:03:02.532Z,10.20
2023-07-19T00:05:30.670Z,9.60
2023-07-19T00:07:58.656Z,11.90
2023-07-19T00:10:26.370Z,7.40
2023-07-19T00:12:56.562Z,7.90
2023-07-19T00:15:25.494Z,6.00
2023-07-19T00:17:53.559Z,7.40
2023-07-19T00:20:21.082Z,5.80
2023-07-19T00:22:48.750Z,7.10
2023-07-19T00:25:16.213Z,6.10
2023-07-19T00:27:43.406Z,7.20
2023-07-19T00:30:11.724Z,8.50
2023-07-19T00:32:39.554Z,9.30
2023-07-19T00:35:07.558Z,9.80
2023-07-19T00:37:35.237Z,14.90
2023-07-19T00:40:04.686Z,8.40
2023-07-19T00:42:32.205Z,10.60
2023-07-19T00:44:59.952Z,8.70
2023-07-19T00:47:28.484Z,14.60
2023-07-19T00:49:56.131Z,9.40
2023-07-19T00:52:23.866Z,5.70
2023-07-19T00:54:51.346Z,10.40
2023-07-19T00:57:19.029Z,7.80
2023-07-19T00:59:46.668Z,7.90
2023-07-19T01:02:15.256Z,7.20
2023-07-19T01:04:44.082Z,8.00
2023-07-19T01:07:12.055Z,7.90
2023-07-19T01:09:39.716Z,8.40
2023-07-19T01:12:08.767Z,6.30
2023-07-19T01:14:36.828Z,7.20
2023-07-19T01:17:04.497Z,7.80
2023-07-19T01:19:31.843Z,9.30
2023-07-19T01:21:59.733Z,9.20
2023-07-19T01:24:27.442Z,6.40
2023-07-19T01:26:59.103Z,10.30
2023-07-19T01:29:31.147Z,4.40
2023-07-19T01:31:58.794Z,5.40
2023-07-19T01:34:27.903Z,7.10
2023-07-19T01:36:55.405Z,9.70
2023-07-19T01:39:22.854Z,6.10
2023-07-19T01:41:50.016Z,7.60
2023-07-19T01:44:18.793Z,6.80
2023-07-19T01:46:46.456Z,5.80
2023-07-19T01:49:13.629Z,7.00
2023-07-19T01:51:41.362Z,8.30
2023-07-19T01:54:08.509Z,7.00
2023-07-19T01:56:35.754Z,4.30
2023-07-19T01:59:03.600Z,7.80
2023-07-19T02:01:30.873Z,5.90
2023-07-19T02:03:58.815Z,6.70
2023-07-19T02:06:26.909Z,5.00
2023-07-19T02:08:54.091Z,5.70
2023-07-19T02:11:21.528Z,5.20
2023-07-19T02:13:49.597Z,5.60
2023-07-19T02:16:16.843Z,5.50
2023-07-19T02:18:44.201Z,5.50
2023-07-19T02:21:12.423Z,5.80
2023-07-19T02:23:40.565Z,9.10
2023-07-19T02:26:07.745Z,6.00
2023-07-19T02:28:35.056Z,11.10
2023-07-19T02:31:04.443Z,6.50
2023-07-19T02:33:31.628Z,5.20
2023-07-19T02:35:59.549Z,6.00
2023-07-19T02:38:27.049Z,5.10
2023-07-19T02:41:02.008Z,4.90
2023-07-19T02:43:30.406Z,7.70
2023-07-19T02:45:58.107Z,7.40
2023-07-19T02:48:26.182Z,4.80
2023-07-19T02:50:53.798Z,7.10
2023-07-19T02:53:20.973Z,5.80
2023-07-19T02:55:48.469Z,5.80
2023-07-19T02:58:16.350Z,5.10
2023-07-19T03:00:44.277Z,8.40
2023-07-19T03:03:13.251Z,7.00
2023-07-19T03:05:45.475Z,4.10
2023-07-19T03:08:13.040Z,7.20
2023-07-19T03:10:40.887Z,5.20
2023-07-19T03:13:09.791Z,9.10
2023-07-19T03:15:37.682Z,5.60
2023-07-19T03:18:05.539Z,7.20
2023-07-19T03:20:33.628Z,7.90
2023-07-19T03:23:01.629Z,6.80
2023-07-19T03:25:32.254Z,11.30
2023-07-19T03:28:00.381Z,12.30
2023-07-19T03:30:28.003Z,6.90
2023-07-19T03:32:56.906Z,9.60
2023-07-19T03:35:24.384Z,9.40
2023-07-19T03:37:51.678Z,9.00
2023-07-19T03:40:19.589Z,15.50
2023-07-19T03:42:58.243Z,7.30
2023-07-19T03:45:29.289Z,7.40
2023-07-19T03:50:26.355Z,11.00
2023-07-19T03:52:54.602Z,10.60
2023-07-19T03:55:22.594Z,10.80
2023-07-19T03:57:50.444Z,10.60
2023-07-19T04:00:18.930Z,15.80
2023-07-19T04:02:46.261Z,9.60
2023-07-19T04:05:18.432Z,13.90
2023-07-19T04:07:46.248Z,10.50
2023-07-19T04:10:13.778Z,15.70
2023-07-19T04:12:41.196Z,31.60
2023-07-19T04:15:09.177Z,17.00
2023-07-19T04:17:37.075Z,13.30
2023-07-19T04:20:07.186Z,12.10
2023-07-19T04:25:04.269Z,21.10
2023-07-19T04:27:32.290Z,36.60
2023-07-19T04:30:00.546Z,45.30
2023-07-19T04:32:28.064Z,38.00
2023-07-19T04:34:55.718Z,20.70
2023-07-19T04:37:23.177Z,15.40
2023-07-19T04:39:51.285Z,18.60
2023-07-19T04:42:20.316Z,11.40
2023-07-19T04:44:50.151Z,15.10
2023-07-19T04:47:17.719Z,9.20
2023-07-19T04:49:45.091Z,6.90
2023-07-19T04:52:12.651Z,16.80
2023-07-19T04:54:41.658Z,8.00
2023-07-19T04:57:09.183Z,9.90
2023-07-19T04:59:37.276Z,9.10
2023-07-19T05:02:05.424Z,9.90
2023-07-19T05:04:32.661Z,12.70
2023-07-19T05:07:00.890Z,7.80
2023-07-19T05:09:30.765Z,11.50
2023-07-19T05:11:58.121Z,10.10
2023-07-19T05:14:27.393Z,6.80
2023-07-19T05:16:54.940Z,9.80
2023-07-19T05:19:22.140Z,9.10
2023-07-19T05:21:51.535Z,11.20
2023-07-19T05:24:18.847Z,9.80
2023-07-19T05:26:46.886Z,12.30
2023-07-19T05:29:14.237Z,14.40
2023-07-19T05:31:42.115Z,15.10
2023-07-19T05:34:09.347Z,11.30
2023-07-19T05:36:38.828Z,5.90
2023-07-19T05:41:34.102Z,26.10
2023-07-19T05:44:10.715Z,44.40
2023-07-19T05:46:40.014Z,32.80
2023-07-19T05:49:07.430Z,22.30
2023-07-19T05:51:34.739Z,20.30
2023-07-19T05:54:04.379Z,24.40
2023-07-19T05:56:32.506Z,55.70
2023-07-19T05:59:01.336Z,39.80
2023-07-19T06:01:32.265Z,43.00
2023-07-19T06:04:02.527Z,21.70
2023-07-19T06:06:30.172Z,31.40
2023-07-19T06:08:57.317Z,30.70
2023-07-19T06:11:24.874Z,45.50
2023-07-19T06:13:52.159Z,32.60
2023-07-19T06:16:19.366Z,18.20
2023-07-19T06:18:46.908Z,15.80
2023-07-19T06:21:14.378Z,27.90
2023-07-19T06:23:42.256Z,15.00
2023-07-19T06:26:10.614Z,18.60
2023-07-19T06:28:38.376Z,25.10
2023-07-19T06:31:05.732Z,22.70
2023-07-19T06:33:33.573Z,15.10
2023-07-19T06:36:01.245Z,11.60
2023-07-19T06:38:28.709Z,19.20
2023-07-19T06:41:03.283Z,10.00
2023-07-19T06:43:31.555Z,16.30
2023-07-19T06:46:00.633Z,10.50
2023-07-19T06:48:28.175Z,11.30
2023-07-19T06:50:57.606Z,12.30
2023-07-19T06:53:24.844Z,17.50
2023-07-19T06:55:55.166Z,20.10
2023-07-19T06:58:22.520Z,20.00
2023-07-19T07:00:49.852Z,15.70
2023-07-19T07:03:17.898Z,9.80
2023-07-19T07:05:46.349Z,11.80
2023-07-19T07:08:13.605Z,10.50
2023-07-19T07:10:44.410Z,13.40
2023-07-19T07:13:12.042Z,10.30
2023-07-19T07:15:39.278Z,10.80
2023-07-19T07:18:06.868Z,12.40
2023-07-19T07:20:38.680Z,11.10
2023-07-19T07:23:05.931Z,15.80
2023-07-19T07:25:34.749Z,7.90
2023-07-19T07:28:02.609Z,6.90
2023-07-19T07:30:29.897Z,5.90
2023-07-19T07:32:57.505Z,9.40
2023-07-19T07:35:24.949Z,8.40
2023-07-19T07:37:52.394Z,5.30
2023-07-19T07:40:19.941Z,8.30
2023-07-19T07:42:47.709Z,6.70
2023-07-19T07:45:15.701Z,5.10
2023-07-19T07:48:11.730Z,9.90
2023-07-19T07:50:44.993Z,5.60
2023-07-19T07:53:13.601Z,7.80
2023-07-19T07:55:42.481Z,7.70
2023-07-19T07:58:11.253Z,7.30
2023-07-19T08:00:38.850Z,5.40
2023-07-19T08:03:06.275Z,4.70
2023-07-19T08:05:34.290Z,6.50
2023-07-19T08:08:03.135Z,5.80
2023-07-19T08:10:30.743Z,5.40
2023-07-19T08:12:58.226Z,5.00
2023-07-19T08:15:29.765Z,6.00
2023-07-19T08:18:10.309Z,4.90
2023-07-19T08:20:44.319Z,12.60
2023-07-19T08:23:11.649Z,5.00
2023-07-19T08:25:39.323Z,4.60
2023-07-19T08:28:06.754Z,5.20
2023-07-19T08:30:34.253Z,6.90
2023-07-19T08:33:09.113Z,3.90
2023-07-19T08:35:36.827Z,7.30
2023-07-19T08:38:04.149Z,8.20
2023-07-19T08:40:33.056Z,5.70
2023-07-19T08:43:08.203Z,7.10
2023-07-19T08:45:37.845Z,7.60
2023-07-19T08:48:06.432Z,5.90
2023-07-19T08:50:36.955Z,7.40
2023-07-19T08:53:05.455Z,6.50
2023-07-19T08:55:33.090Z,5.50
2023-07-19T08:58:02.544Z,6.30
2023-07-19T09:00:34.382Z,6.20
2023-07-19T09:03:02.100Z,4.00
2023-07-19T09:05:30.630Z,8.90
2023-07-19T09:08:03.487Z,5.10
2023-07-19T09:10:50.696Z,9.30
2023-07-19T09:13:21.953Z,6.60
2023-07-19T09:15:52.791Z,6.40
2023-07-19T09:18:29.440Z,5.90
2023-07-19T09:21:00.275Z,5.50
2023-07-19T09:23:27.541Z,5.40
2023-07-19T09:25:56.213Z,8.30
2023-07-19T09:28:24.910Z,7.80
2023-07-19T09:31:08.287Z,16.10
2023-07-19T09:33:43.853Z,10.00
2023-07-19T09:36:18.761Z,7.80
2023-07-19T09:38:47.072Z,8.30
2023-07-19T09:41:14.496Z,7.80
2023-07-19T09:43:43.467Z,4.90
2023-07-19T09:46:12.106Z,7.90
2023-07-19T09:48:39.426Z,10.30
2023-07-19T09:51:07.066Z,21.30
2023-07-19T09:53:39.296Z,3.60
2023-07-19T09:56:10.325Z,5.40
2023-07-19T09:58:39.524Z,8.00
2023-07-19T10:01:06.780Z,9.80
2023-07-19T10:03:37.947Z,9.30
2023-07-19T10:06:05.423Z,6.00
2023-07-19T10:08:33.061Z,11.50
2023-07-19T10:11:02.238Z,9.30
2023-07-19T10:15:58.182Z,9.60
2023-07-19T10:18:26.036Z,6.10
2023-07-19T10:21:04.631Z,5.20
2023-07-19T10:23:35.671Z,16.90
2023-07-19T10:26:07.230Z,10.50
2023-07-19T10:28:35.183Z,7.30
2023-07-19T10:31:25.921Z,6.90
2023-07-19T10:33:56.130Z,5.50
2023-07-19T10:36:24.877Z,9.10
2023-07-19T10:38:52.711Z,12.50
2023-07-19T10:41:21.343Z,15.20
2023-07-19T10:43:52.781Z,8.90
2023-07-19T10:46:22.957Z,16.60
2023-07-19T10:48:55.340Z,15.50
2023-07-19T10:51:26.150Z,6.00
2023-07-19T10:53:58.819Z,5.50
2023-07-19T10:56:28.459Z,7.20
2023-07-19T10:59:00.085Z,9.60
2023-07-19T11:01:29.922Z,7.30
2023-07-19T11:04:03.525Z,6.60
2023-07-19T11:06:32.051Z,16.00
2023-07-19T11:09:10.869Z,8.00
2023-07-19T11:11:39.677Z,7.90
2023-07-19T11:14:07.494Z,7.90
2023-07-19T11:16:35.815Z,7.00
2023-07-19T11:19:05.117Z,10.00
2023-07-19T11:21:33.095Z,15.90
2023-07-19T11:24:02.126Z,5.80
2023-07-19T11:26:29.584Z,12.60
2023-07-19T11:28:59.036Z,8.20
2023-07-19T11:31:30.535Z,6.10
2023-07-19T11:34:14.310Z,7.30
2023-07-19T11:36:46.296Z,6.10
2023-07-19T11:39:27.002Z,5.60
2023-07-19T11:41:54.530Z,8.00
2023-07-19T11:44:23.086Z,14.30
2023-07-19T11:46:53.039Z,14.90
2023-07-19T11:49:20.696Z,11.90
2023-07-19T11:51:48.602Z,9.40
2023-07-19T11:54:17.656Z,10.90
2023-07-19T11:56:45.580Z,9.40
2023-07-19T11:59:12.786Z,9.90
2023-07-19T12:01:40.580Z,13.00
2023-07-19T12:04:08.453Z,11.20
2023-07-19T12:06:35.945Z,9.90
2023-07-19T12:09:03.521Z,6.10
2023-07-19T12:11:31.260Z,8.20
2023-07-19T12:13:59.694Z,6.00
2023-07-19T12:16:27.458Z,10.20
2023-07-19T12:18:55.231Z,8.00
2023-07-19T12:21:44.292Z,11.30
2023-07-19T12:24:19.495Z,15.30
2023-07-19T12:26:47.187Z,14.20
2023-07-19T12:29:14.721Z,5.70
2023-07-19T12:31:42.522Z,6.40
2023-07-19T12:34:10.205Z,10.70
2023-07-19T12:36:38.116Z,10.70
2023-07-19T12:39:06.233Z,17.30
2023-07-19T12:41:35.375Z,6.30
2023-07-19T12:44:05.127Z,9.40
2023-07-19T12:46:34.193Z,10.10
2023-07-19T12:49:02.107Z,7.70
2023-07-19T12:51:30.202Z,12.40
2023-07-19T12:54:01.038Z,7.30
2023-07-19T12:56:29.222Z,6.60
2023-07-19T12:59:06.574Z,13.30
2023-07-19T13:01:39.190Z,16.10
2023-07-19T13:04:09.013Z,16.20
2023-07-19T13:06:37.684Z,11.70
2023-07-19T13:09:09.374Z,8.40
2023-07-19T13:11:39.722Z,6.90
2023-07-19T13:14:08.597Z,5.60
2023-07-19T13:16:36.625Z,8.50
2023-07-19T13:19:04.798Z,10.40
2023-07-19T13:21:32.486Z,12.60
2023-07-19T13:23:59.843Z,6.10
2023-07-19T13:26:28.051Z,24.20
2023-07-19T13:28:55.559Z,8.90
2023-07-19T13:31:22.883Z,11.30
2023-07-19T13:33:50.671Z,8.50
2023-07-19T13:38:48.311Z,14.70
2023-07-19T13:41:16.208Z,8.20
2023-07-19T13:43:44.448Z,5.30
2023-07-19T13:46:11.923Z,7.20
2023-07-19T13:48:39.619Z,16.40
2023-07-19T13:51:07.005Z,11.20
2023-07-19T13:53:35.386Z,14.40
2023-07-19T13:56:03.822Z,11.60
2023-07-19T13:58:31.316Z,11.20
2023-07-19T14:00:58.817Z,11.10
2023-07-19T14:03:29.704Z,7.10
2023-07-19T14:05:57.291Z,3.20
2023-07-19T14:08:24.528Z,4.60
2023-07-19T14:10:52.451Z,6.80
2023-07-19T14:16:04.492Z,11.80
2023-07-19T14:18:33.094Z,9.10
2023-07-19T14:21:00.482Z,7.80
2023-07-19T14:23:28.322Z,6.70
2023-07-19T14:25:56.548Z,4.40
2023-07-19T14:28:24.052Z,9.30
2023-07-19T14:30:52.703Z,8.60
2023-07-19T14:33:22.186Z,11.80
2023-07-19T14:35:49.444Z,20.70
2023-07-19T14:38:17.016Z,12.10
2023-07-19T14:40:44.477Z,8.10
2023-07-19T14:43:11.919Z,9.10
2023-07-19T14:45:40.523Z,11.50
2023-07-19T14:48:10.839Z,10.00
2023-07-19T14:50:38.408Z,12.50
2023-07-19T14:53:08.503Z,8.30
2023-07-19T14:55:36.633Z,9.50
2023-07-19T14:58:04.170Z,6.90
2023-07-19T15:03:02.476Z,9.30
2023-07-19T15:05:31.212Z,8.50
2023-07-19T15:07:58.447Z,7.10
2023-07-19T15:10:26.825Z,9.70
2023-07-19T15:12:54.134Z,5.80
2023-07-19T15:15:21.520Z,9.50
2023-07-19T15:17:51.168Z,7.70
2023-07-19T15:20:18.866Z,13.30
2023-07-19T15:22:46.311Z,7.60
2023-07-19T15:25:16.033Z,7.50
2023-07-19T15:27:44.002Z,8.60
2023-07-19T15:30:12.586Z,9.50
2023-07-19T15:32:42.254Z,5.80
2023-07-19T15:35:10.466Z,6.30
2023-07-19T15:37:37.994Z,7.10
2023-07-19T15:40:05.891Z,10.40
2023-07-19T15:42:33.216Z,10.70
2023-07-19T15:45:00.472Z,6.70
2023-07-19T15:47:28.370Z,4.10
2023-07-19T15:49:55.751Z,9.30
2023-07-19T15:52:26.098Z,4.20
2023-07-19T15:54:53.997Z,6.90
2023-07-19T15:57:21.212Z,5.70
2023-07-19T15:59:48.393Z,4.30
2023-07-19T16:02:16.746Z,6.40
2023-07-19T16:04:44.006Z,10.90
2023-07-19T16:07:14.117Z,7.40
2023-07-19T16:09:42.590Z,6.50
2023-07-19T16:12:10.687Z,9.20
2023-07-19T16:14:37.840Z,13.80
2023-07-19T16:17:05.889Z,6.20
2023-07-19T16:19:33.045Z,9.30
2023-07-19T16:22:00.212Z,4.90
2023-07-19T16:24:27.949Z,5.50
2023-07-19T16:26:55.552Z,7.80
2023-07-19T16:29:22.816Z,13.50
2023-07-19T16:31:50.700Z,6.70
2023-07-19T16:34:18.151Z,5.90
2023-07-19T16:36:46.912Z,11.10
2023-07-19T16:39:15.164Z,7.60
2023-07-19T16:41:42.483Z,9.50
2023-07-19T16:44:11.539Z,7.90
2023-07-19T16:46:40.408Z,13.10
2023-07-19T16:49:08.068Z,5.60
2023-07-19T16:51:35.267Z,14.70
2023-07-19T16:54:03.291Z,7.10
2023-07-19T16:56:33.116Z,7.30
2023-07-19T17:01:29.002Z,6.60
2023-07-19T17:03:56.532Z,5.20
2023-07-19T17:06:24.021Z,12.40
2023-07-19T17:08:51.622Z,10.60
2023-07-19T17:11:19.207Z,13.00
2023-07-19T17:13:46.821Z,15.30
2023-07-19T17:16:14.457Z,12.20
2023-07-19T17:18:43.766Z,7.10
2023-07-19T17:21:13.804Z,6.00
2023-07-19T17:23:41.283Z,6.80
2023-07-19T17:26:08.436Z,5.10
2023-07-19T17:28:36.250Z,11.10
2023-07-19T17:31:03.799Z,18.20
2023-07-19T17:33:31.502Z,12.30
2023-07-19T17:35:59.065Z,8.90
2023-07-19T17:38:28.287Z,12.90
2023-07-19T17:40:55.717Z,7.90
2023-07-19T17:43:23.339Z,12.80
2023-07-19T17:45:51.386Z,13.00
2023-07-19T17:48:18.628Z,9.90
2023-07-19T17:50:45.828Z,19.00
2023-07-19T17:53:13.639Z,10.80
2023-07-19T17:55:41.285Z,12.50
2023-07-19T17:58:08.495Z,7.90
2023-07-19T18:00:36.844Z,17.50
2023-07-19T18:03:04.270Z,13.50
2023-07-19T18:05:31.737Z,7.30
2023-07-19T18:08:11.589Z,8.40
2023-07-19T18:10:48.246Z,7.10
2023-07-19T18:13:16.278Z,9.80
2023-07-19T18:15:43.430Z,10.60
2023-07-19T18:18:10.644Z,11.20
2023-07-19T18:20:38.669Z,7.30
2023-07-19T18:23:05.996Z,7.60
2023-07-19T18:25:33.164Z,7.20
2023-07-19T18:28:01.083Z,6.40
2023-07-19T18:30:28.337Z,6.30
2023-07-19T18:32:56.456Z,11.10
2023-07-19T18:35:24.417Z,4.10
2023-07-19T18:37:51.626Z,9.00
2023-07-19T18:40:19.011Z,6.40
2023-07-19T18:42:46.468Z,4.40
2023-07-19T18:45:14.091Z,5.20
2023-07-19T18:47:41.683Z,9.40
2023-07-19T18:50:09.984Z,11.60
2023-07-19T18:52:37.321Z,5.00
2023-07-19T18:55:05.165Z,7.20
2023-07-19T18:57:32.759Z,6.60
2023-07-19T18:59:59.995Z,12.30
2023-07-19T19:02:27.512Z,8.40
2023-07-19T19:04:55.036Z,5.40
2023-07-19T19:07:22.280Z,8.40
2023-07-19T19:09:49.784Z,7.50
2023-07-19T19:12:17.299Z,7.10
2023-07-19T19:14:46.695Z,3.70
2023-07-19T19:17:14.656Z,7.10
2023-07-19T19:19:42.121Z,7.70
2023-07-19T19:22:09.757Z,9.50
2023-07-19T19:24:37.123Z,5.90
2023-07-19T19:27:05.009Z,4.90
2023-07-19T19:29:32.247Z,7.60
2023-07-19T19:31:59.968Z,8.10
2023-07-19T19:34:27.710Z,19.00
2023-07-19T19:36:55.514Z,12.30
2023-07-19T19:39:29.493Z,13.70
2023-07-19T19:41:58.331Z,11.50
2023-07-19T19:44:25.882Z,5.90
2023-07-19T19:46:53.051Z,7.70
2023-07-19T19:49:20.590Z,10.20
2023-07-19T19:51:49.448Z,7.60
2023-07-19T19:54:16.680Z,11.20
2023-07-19T19:56:50.474Z,10.50
2023-07-19T19:59:18.901Z,6.80
2023-07-19T20:01:47.245Z,12.60
2023-07-19T20:04:14.665Z,12.00
2023-07-19T20:06:42.513Z,10.20
2023-07-19T20:09:12.679Z,11.00
2023-07-19T20:11:46.712Z,9.30
2023-07-19T20:14:26.160Z,8.30
2023-07-19T20:16:56.029Z,8.80
2023-07-19T20:21:55.511Z,10.50
2023-07-19T20:24:26.687Z,6.10
2023-07-19T20:27:04.463Z,12.40
2023-07-19T20:30:01.859Z,11.50
2023-07-19T20:34:56.577Z,7.10
2023-07-19T20:39:55.519Z,9.40
2023-07-19T20:42:27.345Z,6.90
2023-07-19T20:44:55.385Z,11.20
2023-07-19T20:47:22.955Z,9.60
2023-07-19T20:49:50.213Z,12.00
2023-07-19T20:52:17.932Z,7.20
2023-07-19T20:54:45.613Z,6.40
2023-07-19T20:57:13.111Z,5.60
2023-07-19T20:59:40.448Z,6.30
2023-07-19T21:02:08.533Z,7.00
2023-07-19T21:04:36.037Z,7.40
2023-07-19T21:07:03.689Z,9.50
2023-07-19T21:09:31.387Z,10.70
2023-07-19T21:11:58.623Z,9.00
2023-07-19T21:14:26.198Z,7.30
2023-07-19T21:16:53.675Z,5.80
2023-07-19T21:19:20.774Z,7.60
2023-07-19T21:21:48.063Z,10.40
2023-07-19T21:24:15.341Z,7.10
2023-07-19T21:26:43.116Z,6.50
2023-07-19T21:29:10.519Z,7.80
2023-07-19T21:31:39.196Z,7.90
2023-07-19T21:34:06.803Z,8.60
2023-07-19T21:36:34.432Z,4.70
2023-07-19T21:39:02.369Z,4.90
2023-07-19T21:41:30.590Z,6.40
2023-07-19T21:43:59.173Z,7.10
2023-07-19T21:46:27.532Z,7.20
2023-07-19T21:48:56.114Z,4.90
2023-07-19T21:51:24.004Z,4.60
2023-07-19T21:53:51.606Z,5.70
2023-07-19T21:56:21.501Z,4.10
2023-07-19T21:58:49.718Z,11.20
2023-07-19T22:01:16.995Z,7.60
2023-07-19T22:03:44.397Z,6.40
2023-07-19T22:06:12.008Z,4.10
2023-07-19T22:08:40.724Z,3.00
2023-07-19T22:11:09.002Z,6.40
2023-07-19T22:13:36.950Z,6.60
2023-07-19T22:16:04.230Z,9.90
2023-07-19T22:18:31.427Z,5.30
2023-07-19T22:21:15.322Z,6.10
2023-07-19T22:23:47.684Z,8.00
2023-07-19T22:26:15.745Z,8.50
2023-07-19T22:28:43.065Z,7.10
2023-07-19T22:31:10.404Z,5.00
2023-07-19T22:33:38.105Z,7.40
2023-07-19T22:36:06.258Z,8.80
2023-07-19T22:38:33.373Z,3.80
2023-07-19T22:41:01.526Z,4.70
2023-07-19T22:43:29.278Z,5.10
2023-07-19T22:45:56.816Z,5.90
2023-07-19T22:48:24.162Z,8.80
2023-07-19T22:50:51.336Z,4.30
2023-07-19T22:53:18.767Z,4.40
2023-07-19T22:55:46.367Z,3.90
2023-07-19T22:58:13.459Z,5.80
2023-07-19T23:00:40.941Z,4.60
2023-07-19T23:03:08.400Z,3.40
2023-07-19T23:05:36.766Z,3.80
2023-07-19T23:08:04.449Z,3.90
2023-07-19T23:10:31.707Z,2.80
2023-07-19T23:12:58.859Z,54.60
2023-07-19T23:15:27.019Z,29.50
2023-07-19T23:17:54.488Z,5.40
2023-07-19T23:20:21.921Z,5.00
2023-07-19T23:22:49.855Z,5.30
2023-07-19T23:25:19.065Z,3.80
2023-07-19T23:27:46.251Z,6.80
2023-07-19T23:30:13.801Z,7.20
2023-07-19T23:32:41.760Z,7.60
2023-07-19T23:35:09.255Z,5.70
2023-07-19T23:37:36.573Z,6.80
2023-07-19T23:40:06.572Z,6.40
2023-07-19T23:42:34.580Z,5.70
2023-07-19T23:45:01.834Z,6.00
2023-07-19T23:47:29.603Z,5.20
2023-07-19T23:49:56.829Z,8.50
2023-07-19T23:52:24.195Z,5.90
2023-07-19T23:54:52.024Z,8.20
2023-07-19T23:57:19.105Z,8.50
2023-07-19T23:59:46.297Z,7.00
